Capitol Logistics 1850

Operating for CJT



CYMX
Montreal International (Mirabel) Airport
Montreal, CA
KCVG
Cincinnati/Northern Kentucky International Airport
Covington, US

Activity Log

Date Flight Route Aircraft Duration
No Flights Yet

Route Details

Aircraft Information
Group: North America Fleet
Types: B738,B752,B762,B763
Route Data
Demand: L
Distance: 617nm
Duration: 1h 36m
Recm'd Route: FAWNS BUGSY SYR JOSSY MAULL KODIE CTW TIGRR3
Origin Wx: CYMX 272017Z CCA 23007KT 200V270 15SM -RA FEW007 BKN017 OVC030 20/19 A2967 RMK SF2SC4SC1 -RA INTMT SLP051 DENSITY ALT 1300FT
Dest. Wx: KCVG 272052Z 26008KT 9SM -TSRA FEW020CB BKN090 OVC110 16/16 A2977 RMK AO2 RAB14 TSB49 SLP077 OCNL LTGIC N-NE TS N-NE MOV E P0001 60001 T01610156 55002
Notes:

Financial History
Total Freight: 0lbs
Average Load: 0lbs/flt
Fuel Used: 0lbs
Avg. Fuel Used: 0lbs/flt
Fuel Expense: $0
Avg. Fuel Expense: $0
Avg. Fuel Cost: $0/lbs
Total Gross Income: $0
Pilot Pay: $0
Total Expenses: $0
Total Revenue: $0
Average Revenue: $0